createdAt,value
2022-09-20T00:01:10.552Z,15.50
2022-09-20T00:03:39.281Z,15.50
2022-09-20T00:06:09.091Z,15.60
2022-09-20T00:08:36.113Z,15.60
2022-09-20T00:11:11.282Z,15.60
2022-09-20T00:13:39.589Z,15.70
2022-09-20T00:16:12.559Z,15.70
2022-09-20T00:18:39.309Z,15.80
2022-09-20T00:21:06.642Z,15.80
2022-09-20T00:23:34.075Z,15.80
2022-09-20T00:26:03.390Z,15.90
2022-09-20T00:28:31.583Z,15.90
2022-09-20T00:30:58.244Z,16.00
2022-09-20T00:33:48.699Z,15.90
2022-09-20T00:36:15.835Z,16.00
2022-09-20T00:38:42.801Z,16.00
2022-09-20T00:41:09.996Z,16.00
2022-09-20T00:43:46.820Z,16.00
2022-09-20T00:46:19.143Z,15.90
2022-09-20T00:48:46.830Z,15.90
2022-09-20T00:51:18.045Z,15.90
2022-09-20T00:53:49.076Z,15.70
2022-09-20T00:56:32.757Z,15.70
2022-09-20T00:59:10.990Z,15.70
2022-09-20T01:01:37.933Z,15.70
2022-09-20T01:04:05.083Z,15.70
2022-09-20T01:06:33.545Z,15.50
2022-09-20T01:09:04.557Z,15.40
2022-09-20T01:11:31.558Z,15.40
2022-09-20T01:13:58.206Z,15.40
2022-09-20T01:16:26.973Z,15.40
2022-09-20T01:18:57.194Z,15.30
2022-09-20T01:21:25.094Z,15.40
2022-09-20T01:24:07.575Z,15.40
2022-09-20T01:27:19.808Z,15.50
2022-09-20T01:30:16.647Z,15.50
2022-09-20T01:33:06.534Z,15.60
2022-09-20T01:35:35.405Z,15.60
2022-09-20T01:38:10.592Z,15.50
2022-09-20T01:40:59.013Z,15.50
2022-09-20T01:43:33.616Z,15.60
2022-09-20T01:46:11.327Z,15.50
2022-09-20T01:48:40.255Z,15.50
2022-09-20T01:51:09.712Z,15.40
2022-09-20T01:54:10.463Z,15.40
2022-09-20T01:57:26.473Z,15.50
2022-09-20T02:00:06.181Z,15.40
2022-09-20T02:02:51.069Z,15.60
2022-09-20T02:05:34.005Z,15.40
2022-09-20T02:08:22.501Z,15.50
2022-09-20T02:11:11.036Z,15.50
2022-09-20T02:13:40.756Z,15.50
2022-09-20T02:16:28.966Z,15.40
2022-09-20T02:19:23.137Z,15.40
2022-09-20T02:22:19.141Z,15.40
2022-09-20T02:25:19.256Z,15.20
2022-09-20T02:27:53.756Z,15.20
2022-09-20T02:30:23.524Z,15.20
2022-09-20T02:33:22.342Z,15.10
2022-09-20T02:36:17.050Z,15.10
2022-09-20T02:39:02.352Z,15.10
2022-09-20T02:41:56.195Z,15.00
2022-09-20T02:45:07.112Z,15.00
2022-09-20T02:47:39.810Z,15.00
2022-09-20T02:50:21.317Z,14.90
2022-09-20T02:53:12.865Z,14.90
2022-09-20T02:56:22.400Z,14.90
2022-09-20T02:59:03.745Z,14.90
2022-09-20T03:01:53.294Z,14.80
2022-09-20T03:04:35.821Z,14.90
2022-09-20T03:07:11.762Z,14.90
2022-09-20T03:10:19.356Z,14.90
2022-09-20T03:13:00.766Z,14.80
2022-09-20T03:15:50.802Z,14.70
2022-09-20T03:18:19.693Z,14.70
2022-09-20T03:21:19.026Z,14.60
2022-09-20T03:24:16.094Z,14.60
2022-09-20T03:27:04.246Z,14.60
2022-09-20T03:29:48.457Z,14.60
2022-09-20T03:32:56.349Z,14.50
2022-09-20T03:35:48.077Z,14.50
2022-09-20T03:38:39.009Z,14.40
2022-09-20T03:41:39.886Z,14.50
2022-09-20T03:44:34.352Z,14.50
2022-09-20T03:47:25.385Z,14.40
2022-09-20T03:50:20.952Z,14.40
2022-09-20T03:53:20.892Z,14.40
2022-09-20T03:56:24.316Z,14.40
2022-09-20T03:59:10.642Z,14.40
2022-09-20T04:01:37.323Z,14.30
2022-09-20T04:04:12.011Z,14.30
2022-09-20T04:06:59.130Z,14.30
2022-09-20T04:09:34.737Z,14.40
2022-09-20T04:12:30.677Z,14.40
2022-09-20T04:15:12.153Z,14.40
2022-09-20T04:18:16.894Z,14.40
2022-09-20T04:21:00.512Z,14.40
2022-09-20T04:23:52.216Z,14.40
2022-09-20T04:26:43.305Z,14.40
2022-09-20T04:29:28.532Z,14.40
2022-09-20T04:32:04.771Z,14.40
2022-09-20T04:34:57.289Z,14.20
2022-09-20T04:37:32.919Z,14.30
2022-09-20T04:40:29.589Z,14.30
2022-09-20T04:43:53.503Z,14.20
2022-09-20T04:47:05.894Z,14.20
2022-09-20T04:49:33.645Z,14.20
2022-09-20T04:52:04.125Z,14.80
2022-09-20T04:55:01.888Z,14.20
2022-09-20T04:57:56.394Z,14.10
2022-09-20T05:00:28.285Z,14.10
2022-09-20T05:03:24.441Z,14.20
2022-09-20T05:06:32.162Z,14.20
2022-09-20T05:09:35.786Z,14.20
2022-09-20T05:12:43.036Z,14.20
2022-09-20T05:15:36.237Z,14.20
2022-09-20T05:18:35.052Z,14.20
2022-09-20T05:21:29.305Z,14.20
2022-09-20T05:24:30.796Z,14.20
2022-09-20T05:27:20.836Z,14.20
2022-09-20T05:30:05.372Z,14.20
2022-09-20T05:32:51.834Z,14.20
2022-09-20T05:35:38.248Z,14.10
2022-09-20T05:38:16.680Z,14.20
2022-09-20T05:40:46.476Z,14.20
2022-09-20T05:43:32.872Z,14.10
2022-09-20T05:46:15.220Z,14.20
2022-09-20T05:48:54.007Z,14.10
2022-09-20T05:51:45.900Z,14.10
2022-09-20T05:54:28.162Z,14.30
2022-09-20T05:57:16.580Z,14.40
2022-09-20T06:00:09.227Z,14.40
2022-09-20T06:03:07.068Z,14.40
2022-09-20T06:05:47.080Z,14.40
2022-09-20T06:08:36.161Z,14.50
2022-09-20T06:11:21.610Z,14.40
2022-09-20T06:14:01.035Z,14.40
2022-09-20T06:16:51.409Z,14.40
2022-09-20T06:19:55.584Z,14.30
2022-09-20T06:22:30.975Z,14.50
2022-09-20T06:25:09.931Z,14.70
2022-09-20T06:27:52.058Z,14.60
2022-09-20T06:30:24.704Z,15.10
2022-09-20T06:33:00.248Z,14.80
2022-09-20T06:35:38.953Z,14.70
2022-09-20T06:38:50.148Z,14.80
2022-09-20T06:41:29.825Z,14.80
2022-09-20T06:43:59.737Z,14.90
2022-09-20T06:46:28.080Z,15.00
2022-09-20T06:48:55.450Z,15.40
2022-09-20T06:51:24.522Z,15.00
2022-09-20T06:53:51.419Z,15.00
2022-09-20T06:56:25.067Z,15.10
2022-09-20T06:58:52.693Z,15.10
2022-09-20T07:01:29.716Z,15.30
2022-09-20T07:03:57.736Z,15.40
2022-09-20T07:06:24.402Z,15.60
2022-09-20T07:08:51.166Z,15.60
2022-09-20T07:11:18.478Z,15.70
2022-09-20T07:13:45.589Z,15.90
2022-09-20T07:16:16.881Z,16.00
2022-09-20T07:18:43.890Z,16.00
2022-09-20T07:21:16.101Z,16.40
2022-09-20T07:23:45.727Z,16.00
2022-09-20T07:26:20.612Z,16.10
2022-09-20T07:28:47.565Z,16.30
2022-09-20T07:31:14.406Z,16.40
2022-09-20T07:33:41.187Z,16.60
2022-09-20T07:36:09.744Z,16.70
2022-09-20T07:38:36.477Z,16.70
2022-09-20T07:41:03.202Z,16.80
2022-09-20T07:43:30.939Z,16.80
2022-09-20T07:45:59.262Z,16.80
2022-09-20T07:48:34.472Z,16.90
2022-09-20T07:51:10.345Z,16.80
2022-09-20T07:53:38.152Z,16.90
2022-09-20T07:56:07.354Z,16.90
2022-09-20T07:58:35.881Z,16.80
2022-09-20T08:01:06.547Z,16.80
2022-09-20T08:03:34.677Z,16.90
2022-09-20T08:06:05.388Z,16.80
2022-09-20T08:08:33.746Z,16.90
2022-09-20T08:11:07.880Z,16.80
2022-09-20T08:16:31.330Z,16.90
2022-09-20T08:19:00.950Z,16.80
2022-09-20T08:21:33.172Z,16.80
2022-09-20T08:24:00.756Z,16.80
2022-09-20T08:26:28.959Z,16.90
2022-09-20T08:28:57.979Z,16.90
2022-09-20T08:31:36.580Z,16.90
2022-09-20T08:34:06.361Z,16.90
2022-09-20T08:36:36.608Z,16.80
2022-09-20T08:41:59.501Z,16.90
2022-09-20T08:44:45.395Z,16.90
2022-09-20T08:47:35.692Z,17.10
2022-09-20T08:50:09.546Z,17.40
2022-09-20T08:52:39.983Z,17.40
2022-09-20T08:55:36.432Z,17.30
2022-09-20T08:58:08.236Z,17.30
2022-09-20T09:00:37.832Z,17.20
2022-09-20T09:03:22.844Z,17.30
2022-09-20T09:06:01.135Z,17.30
2022-09-20T09:08:38.953Z,17.40
2022-09-20T09:11:14.217Z,17.50
2022-09-20T09:14:02.482Z,17.80
2022-09-20T09:16:35.749Z,18.00
2022-09-20T09:19:36.043Z,18.10
2022-09-20T09:22:05.622Z,18.30
2022-09-20T09:24:32.424Z,18.30
2022-09-20T09:27:19.491Z,18.20
2022-09-20T09:29:56.256Z,18.30
2022-09-20T09:32:29.513Z,18.50
2022-09-20T09:35:18.413Z,18.60
2022-09-20T09:37:55.098Z,18.70
2022-09-20T09:40:22.082Z,18.40
2022-09-20T09:42:51.430Z,18.70
2022-09-20T09:45:39.276Z,18.60
2022-09-20T09:48:22.652Z,18.70
2022-09-20T09:50:49.542Z,18.70
2022-09-20T09:53:22.265Z,18.80
2022-09-20T09:56:08.736Z,18.60
2022-09-20T09:59:05.391Z,18.60
2022-09-20T10:01:45.227Z,18.50
2022-09-20T10:04:36.251Z,18.20
2022-09-20T10:07:46.722Z,18.20
2022-09-20T10:11:10.115Z,18.10
2022-09-20T10:14:03.066Z,18.10
2022-09-20T10:16:55.568Z,18.10
2022-09-20T10:19:23.303Z,18.20
2022-09-20T10:22:08.225Z,18.20
2022-09-20T10:25:00.999Z,18.40
2022-09-20T10:27:37.963Z,18.50
2022-09-20T10:30:16.062Z,18.60
2022-09-20T10:33:10.877Z,18.70
2022-09-20T10:36:24.077Z,18.70
2022-09-20T10:38:50.748Z,18.80
2022-09-20T10:42:03.295Z,18.80
2022-09-20T10:45:24.584Z,19.00
2022-09-20T10:48:10.181Z,19.10
2022-09-20T10:50:43.542Z,19.30
2022-09-20T10:53:28.230Z,19.40
2022-09-20T10:56:15.957Z,19.50
2022-09-20T10:59:10.589Z,19.60
2022-09-20T11:01:40.341Z,19.50
2022-09-20T11:04:39.831Z,19.50
2022-09-20T11:07:44.870Z,19.50
2022-09-20T11:10:28.797Z,19.60
2022-09-20T11:13:01.174Z,19.60
2022-09-20T11:15:41.665Z,19.80
2022-09-20T11:18:23.059Z,19.80
2022-09-20T11:21:00.405Z,19.70
2022-09-20T11:23:36.210Z,20.00
2022-09-20T11:26:12.961Z,19.80
2022-09-20T11:28:48.911Z,20.70
2022-09-20T11:31:26.799Z,17.80
2022-09-20T11:34:02.876Z,20.30
2022-09-20T11:36:39.330Z,20.40
2022-09-20T11:39:23.542Z,21.30
2022-09-20T11:41:55.174Z,20.30
2022-09-20T11:44:22.304Z,20.30
2022-09-20T11:46:55.079Z,20.30
2022-09-20T11:49:24.786Z,20.20
2022-09-20T11:52:13.241Z,20.40
2022-09-20T11:55:18.883Z,20.30
2022-09-20T11:57:46.781Z,20.30
2022-09-20T12:00:13.598Z,20.50
2022-09-20T12:02:53.425Z,20.40
2022-09-20T12:05:29.352Z,20.40
2022-09-20T12:07:58.246Z,20.40
2022-09-20T12:10:28.096Z,20.40
2022-09-20T12:13:01.156Z,20.60
2022-09-20T12:15:30.478Z,20.20
2022-09-20T12:17:57.382Z,19.90
2022-09-20T12:20:34.618Z,20.10
2022-09-20T12:23:42.189Z,20.10
2022-09-20T12:26:13.511Z,20.00
2022-09-20T12:28:42.572Z,19.90
2022-09-20T12:31:33.507Z,19.80
2022-09-20T12:34:10.405Z,19.60
2022-09-20T12:37:04.950Z,19.80
2022-09-20T12:39:39.294Z,19.80
2022-09-20T12:42:28.200Z,20.00
2022-09-20T12:45:01.258Z,20.00
2022-09-20T12:47:36.802Z,19.90
2022-09-20T12:50:34.769Z,20.30
2022-09-20T12:53:04.177Z,20.20
2022-09-20T12:56:07.512Z,20.10
2022-09-20T12:58:54.095Z,20.20
2022-09-20T13:01:20.988Z,19.90
2022-09-20T13:03:49.632Z,19.90
2022-09-20T13:06:17.430Z,19.80
2022-09-20T13:08:56.465Z,19.80
2022-09-20T13:11:46.557Z,20.00
2022-09-20T13:14:31.311Z,20.00
2022-09-20T13:16:59.987Z,19.90
2022-09-20T13:19:37.684Z,20.10
2022-09-20T13:22:11.901Z,20.20
2022-09-20T13:24:42.122Z,20.10
2022-09-20T13:27:23.794Z,20.10
2022-09-20T13:29:50.962Z,20.10
2022-09-20T13:32:31.314Z,20.00
2022-09-20T13:35:08.506Z,20.10
2022-09-20T13:37:42.901Z,20.10
2022-09-20T13:40:21.811Z,20.20
2022-09-20T13:42:52.386Z,20.70
2022-09-20T13:45:21.999Z,21.30
2022-09-20T13:47:51.474Z,21.90
2022-09-20T13:50:30.064Z,22.80
2022-09-20T13:53:01.477Z,21.80
2022-09-20T13:55:31.815Z,22.10
2022-09-20T13:58:25.356Z,21.10
2022-09-20T14:01:01.110Z,20.90
2022-09-20T14:03:30.376Z,20.40
2022-09-20T14:06:00.665Z,20.30
2022-09-20T14:08:33.385Z,20.20
2022-09-20T14:11:08.264Z,20.10
2022-09-20T14:13:41.662Z,19.80
2022-09-20T14:16:09.575Z,19.60
2022-09-20T14:18:37.774Z,19.40
2022-09-20T14:21:08.127Z,19.50
2022-09-20T14:24:03.358Z,19.70
2022-09-20T14:26:36.285Z,19.70
2022-09-20T14:29:48.808Z,19.70
2022-09-20T14:32:18.291Z,19.80
2022-09-20T14:35:05.107Z,19.90
2022-09-20T14:37:45.304Z,20.10
2022-09-20T14:40:23.939Z,20.30
2022-09-20T14:43:05.571Z,20.40
2022-09-20T14:45:34.983Z,20.40
2022-09-20T14:48:10.780Z,20.50
2022-09-20T14:50:46.922Z,20.60
2022-09-20T14:53:26.588Z,20.50
2022-09-20T14:56:09.061Z,20.30
2022-09-20T14:59:06.977Z,20.30
2022-09-20T15:01:35.901Z,20.30
2022-09-20T15:04:08.403Z,20.70
2022-09-20T15:06:40.086Z,21.10
2022-09-20T15:09:07.069Z,21.50
2022-09-20T15:11:33.757Z,21.70
2022-09-20T15:14:00.387Z,22.10
2022-09-20T15:16:28.536Z,22.50
2022-09-20T15:18:55.384Z,22.70
2022-09-20T15:21:22.205Z,22.60
2022-09-20T15:23:48.913Z,22.60
2022-09-20T15:26:16.595Z,22.60
2022-09-20T15:28:43.279Z,22.50
2022-09-20T15:31:10.784Z,22.40
2022-09-20T15:33:37.502Z,22.00
2022-09-20T15:36:04.577Z,21.50
2022-09-20T15:38:31.373Z,21.00
2022-09-20T15:41:01.289Z,20.60
2022-09-20T15:43:30.167Z,20.20
2022-09-20T15:46:00.835Z,20.40
2022-09-20T15:48:29.937Z,20.60
2022-09-20T15:51:08.097Z,20.90
2022-09-20T15:53:41.047Z,21.40
2022-09-20T15:56:20.969Z,21.50
2022-09-20T15:58:58.892Z,21.60
2022-09-20T16:01:32.316Z,20.90
2022-09-20T16:03:59.690Z,21.40
2022-09-20T16:06:26.892Z,20.80
2022-09-20T16:08:53.596Z,20.70
2022-09-20T16:11:23.007Z,20.50
2022-09-20T16:13:54.850Z,20.30
2022-09-20T16:16:21.989Z,20.50
2022-09-20T16:19:07.696Z,20.60
2022-09-20T16:21:34.833Z,20.80
2022-09-20T16:24:02.300Z,21.10
2022-09-20T16:26:31.186Z,21.20
2022-09-20T16:28:58.477Z,21.20
2022-09-20T16:31:32.805Z,21.20
2022-09-20T16:34:00.289Z,20.80
2022-09-20T16:36:27.750Z,20.80
2022-09-20T16:38:58.509Z,20.70
2022-09-20T16:41:26.919Z,20.40
2022-09-20T16:43:53.911Z,20.20
2022-09-20T16:46:22.017Z,20.00
2022-09-20T16:48:54.060Z,19.60
2022-09-20T16:51:23.989Z,19.60
2022-09-20T16:53:55.555Z,19.60
2022-09-20T16:56:25.001Z,19.50
2022-09-20T16:58:52.706Z,19.40
2022-09-20T17:01:20.215Z,19.30
2022-09-20T17:03:47.648Z,19.40
2022-09-20T17:06:15.961Z,19.10
2022-09-20T17:08:44.646Z,18.80
2022-09-20T17:11:16.974Z,18.80
2022-09-20T17:13:44.928Z,19.30
2022-09-20T17:16:14.264Z,18.60
2022-09-20T17:18:42.768Z,18.50
2022-09-20T17:21:14.502Z,18.50
2022-09-20T17:23:45.491Z,18.50
2022-09-20T17:26:16.621Z,18.30
2022-09-20T17:28:45.495Z,18.30
2022-09-20T17:31:14.640Z,18.20
2022-09-20T17:33:41.648Z,17.90
2022-09-20T17:36:12.731Z,18.00
2022-09-20T17:38:39.481Z,17.90
2022-09-20T17:41:14.105Z,17.90
2022-09-20T17:43:41.800Z,17.80
2022-09-20T17:46:24.611Z,17.70
2022-09-20T17:48:55.873Z,17.70
2022-09-20T17:51:27.911Z,17.60
2022-09-20T17:53:55.875Z,17.60
2022-09-20T17:56:24.565Z,17.40
2022-09-20T17:58:51.269Z,17.50
2022-09-20T18:01:20.262Z,17.50
2022-09-20T18:03:48.789Z,17.30
2022-09-20T18:06:17.205Z,17.40
2022-09-20T18:08:53.772Z,17.30
2022-09-20T18:11:22.989Z,17.30
2022-09-20T18:13:49.680Z,17.10
2022-09-20T18:16:18.192Z,17.20
2022-09-20T18:18:46.471Z,17.00
2022-09-20T18:21:21.164Z,17.10
2022-09-20T18:23:48.897Z,17.10
2022-09-20T18:26:26.828Z,17.10
2022-09-20T18:28:58.210Z,17.00
2022-09-20T18:31:27.516Z,17.00
2022-09-20T18:33:55.793Z,16.90
2022-09-20T18:36:25.577Z,16.90
2022-09-20T18:38:54.393Z,16.90
2022-09-20T18:41:23.954Z,16.90
2022-09-20T18:43:51.151Z,16.90
2022-09-20T18:46:23.689Z,16.90
2022-09-20T18:48:55.014Z,16.90
2022-09-20T18:51:24.214Z,16.90
2022-09-20T18:53:52.028Z,17.00
2022-09-20T18:56:26.580Z,16.90
2022-09-20T18:58:58.844Z,16.90
2022-09-20T19:01:25.529Z,16.90
2022-09-20T19:04:19.357Z,16.90
2022-09-20T19:06:54.180Z,16.90
2022-09-20T19:09:43.268Z,16.80
2022-09-20T19:12:17.931Z,16.90
2022-09-20T19:14:54.013Z,16.80
2022-09-20T19:17:38.538Z,16.90
2022-09-20T19:20:20.011Z,16.60
2022-09-20T19:23:10.555Z,16.70
2022-09-20T19:25:45.309Z,16.70
2022-09-20T19:28:14.232Z,16.70
2022-09-20T19:30:42.567Z,16.70
2022-09-20T19:33:16.334Z,16.70
2022-09-20T19:35:51.355Z,16.60
2022-09-20T19:39:00.194Z,16.70
2022-09-20T19:41:38.472Z,16.70
2022-09-20T19:44:35.841Z,16.70
2022-09-20T19:47:29.555Z,16.70
2022-09-20T19:50:04.466Z,16.70
2022-09-20T19:52:31.425Z,17.30
2022-09-20T19:54:58.457Z,16.70
2022-09-20T19:57:43.723Z,16.80
2022-09-20T20:00:15.412Z,16.80
2022-09-20T20:02:44.571Z,16.80
2022-09-20T20:05:16.879Z,16.80
2022-09-20T20:08:11.397Z,16.80
2022-09-20T20:10:56.793Z,16.80
2022-09-20T20:14:02.021Z,16.60
2022-09-20T20:16:55.035Z,16.60
2022-09-20T20:19:43.587Z,16.60
2022-09-20T20:22:29.150Z,16.70
2022-09-20T20:24:56.657Z,16.70
2022-09-20T20:27:25.447Z,16.70
2022-09-20T20:29:52.141Z,16.60
2022-09-20T20:32:18.863Z,16.60
2022-09-20T20:34:46.806Z,16.60
2022-09-20T20:37:13.900Z,16.60
2022-09-20T20:39:40.544Z,16.60
2022-09-20T20:42:08.382Z,16.50
2022-09-20T20:44:35.211Z,16.60
2022-09-20T20:47:03.296Z,16.60
2022-09-20T20:49:30.184Z,16.50
2022-09-20T20:51:58.453Z,16.60
2022-09-20T20:54:25.615Z,16.50
2022-09-20T20:56:52.282Z,16.50
2022-09-20T20:59:18.989Z,16.50
2022-09-20T21:01:45.932Z,16.60
2022-09-20T21:04:13.545Z,16.50
2022-09-20T21:06:41.409Z,16.40
2022-09-20T21:09:10.052Z,16.40
2022-09-20T21:11:39.259Z,16.40
2022-09-20T21:14:07.224Z,16.50
2022-09-20T21:16:36.034Z,16.50
2022-09-20T21:19:04.601Z,16.40
2022-09-20T21:21:39.457Z,16.40
2022-09-20T21:24:08.224Z,16.40
2022-09-20T21:26:36.957Z,16.40
2022-09-20T21:29:10.825Z,16.40
2022-09-20T21:31:39.869Z,16.50
2022-09-20T21:34:12.696Z,16.30
2022-09-20T21:36:41.449Z,16.30
2022-09-20T21:39:08.518Z,17.00
2022-09-20T21:41:37.527Z,16.30
2022-09-20T21:44:06.385Z,16.30
2022-09-20T21:46:41.429Z,16.30
2022-09-20T21:49:10.903Z,16.40
2022-09-20T21:51:38.681Z,16.30
2022-09-20T21:54:05.558Z,16.20
2022-09-20T21:56:34.834Z,16.20
2022-09-20T21:59:03.815Z,16.20
2022-09-20T22:01:34.470Z,16.30
2022-09-20T22:04:08.206Z,16.10
2022-09-20T22:06:43.174Z,16.30
2022-09-20T22:09:11.890Z,16.30
2022-09-20T22:11:48.804Z,16.20
2022-09-20T22:14:18.439Z,16.20
2022-09-20T22:16:46.402Z,17.00
2022-09-20T22:19:16.334Z,16.30
2022-09-20T22:21:45.546Z,16.30
2022-09-20T22:24:13.712Z,16.20
2022-09-20T22:26:49.135Z,16.30
2022-09-20T22:29:17.431Z,16.20
2022-09-20T22:31:46.105Z,16.20
2022-09-20T22:34:20.623Z,16.20
2022-09-20T22:36:47.766Z,16.20
2022-09-20T22:39:15.294Z,16.20
2022-09-20T22:41:43.041Z,16.10
2022-09-20T22:44:10.561Z,16.10
2022-09-20T22:46:38.369Z,16.00
2022-09-20T22:49:06.708Z,16.00
2022-09-20T22:51:33.773Z,15.90
2022-09-20T22:54:05.138Z,15.90
2022-09-20T22:56:32.087Z,15.90
2022-09-20T22:59:06.500Z,15.70
2022-09-20T23:01:39.540Z,15.80
2022-09-20T23:04:12.689Z,15.70
2022-09-20T23:06:42.323Z,15.70
2022-09-20T23:09:11.616Z,15.70
2022-09-20T23:11:39.891Z,15.70
2022-09-20T23:14:06.783Z,15.60
2022-09-20T23:16:36.531Z,15.60
2022-09-20T23:19:05.169Z,15.50
2022-09-20T23:21:32.744Z,15.50
2022-09-20T23:24:02.415Z,15.40
2022-09-20T23:26:31.436Z,15.30
2022-09-20T23:29:03.640Z,15.30
2022-09-20T23:31:32.136Z,15.20
2022-09-20T23:34:01.028Z,15.20
2022-09-20T23:36:31.410Z,15.10
2022-09-20T23:38:58.315Z,15.10
2022-09-20T23:41:26.686Z,15.10
2022-09-20T23:43:54.034Z,15.10
2022-09-20T23:46:23.009Z,15.00
2022-09-20T23:48:53.155Z,15.00
2022-09-20T23:51:23.641Z,14.90
2022-09-20T23:53:52.090Z,14.90
2022-09-20T23:56:20.006Z,14.90
2022-09-20T23:58:48.593Z,14.90
